createdAt,value
2019-03-06T00:00:24.936Z,996.16
2019-03-06T00:01:24.928Z,996.14
2019-03-06T00:02:24.894Z,996.12
2019-03-06T00:03:24.885Z,996.10
2019-03-06T00:04:24.916Z,996.08
2019-03-06T00:05:24.856Z,996.11
2019-03-06T00:06:24.815Z,996.07
2019-03-06T00:07:24.847Z,996.11
2019-03-06T00:08:24.804Z,996.01
2019-03-06T00:09:24.757Z,996.02
2019-03-06T00:10:24.793Z,996.02
2019-03-06T00:11:24.725Z,996.02
2019-03-06T00:12:24.724Z,995.99
2019-03-06T00:13:24.709Z,996.02
2019-03-06T00:14:24.707Z,995.96
2019-03-06T00:15:24.680Z,995.93
2019-03-06T00:16:24.649Z,995.96
2019-03-06T00:17:24.620Z,995.96
2019-03-06T00:18:24.609Z,995.94
2019-03-06T00:19:24.615Z,995.94
2019-03-06T00:20:24.568Z,995.93
2019-03-06T00:21:24.685Z,995.90
2019-03-06T00:22:24.518Z,995.94
2019-03-06T00:23:24.504Z,995.90
2019-03-06T00:24:24.491Z,995.94
2019-03-06T00:25:24.457Z,995.90
2019-03-06T00:26:24.437Z,995.91
2019-03-06T00:27:24.443Z,995.86
2019-03-06T00:28:24.398Z,995.88
2019-03-06T00:29:24.369Z,995.89
2019-03-06T00:30:24.369Z,995.86
2019-03-06T00:31:24.354Z,995.91
2019-03-06T00:32:24.308Z,995.88
2019-03-06T00:33:24.299Z,995.92
2019-03-06T00:34:24.292Z,995.90
2019-03-06T00:35:24.252Z,995.93
2019-03-06T00:36:24.257Z,995.89
2019-03-06T00:37:24.253Z,995.89
2019-03-06T00:38:24.209Z,995.91
2019-03-06T00:39:24.185Z,995.87
2019-03-06T00:40:24.148Z,995.87
2019-03-06T00:41:24.174Z,995.84
2019-03-06T00:42:24.116Z,995.82
2019-03-06T00:43:24.108Z,995.82
2019-03-06T00:44:24.103Z,995.81
2019-03-06T00:45:24.193Z,995.82
2019-03-06T00:46:24.034Z,995.78
2019-03-06T00:47:24.017Z,995.78
2019-03-06T00:48:24.022Z,995.74
2019-03-06T00:49:24.002Z,995.77
2019-03-06T00:50:23.976Z,995.73
2019-03-06T00:51:23.986Z,995.76
2019-03-06T00:52:23.957Z,995.77
2019-03-06T00:53:23.921Z,995.79
2019-03-06T00:54:23.904Z,995.81
2019-03-06T00:55:23.878Z,995.84
2019-03-06T00:56:23.922Z,995.83
2019-03-06T00:57:23.829Z,995.85
2019-03-06T00:58:25.104Z,995.86
2019-03-06T00:59:23.804Z,995.85
2019-03-06T01:00:23.759Z,995.86
2019-03-06T01:01:23.765Z,995.90
2019-03-06T01:02:23.741Z,995.90
2019-03-06T01:03:23.841Z,995.90
2019-03-06T01:04:23.699Z,995.87
2019-03-06T01:05:23.677Z,995.89
2019-03-06T01:06:23.665Z,995.91
2019-03-06T01:07:23.631Z,995.91
2019-03-06T01:08:23.605Z,995.92
2019-03-06T01:09:23.616Z,995.88
2019-03-06T01:10:23.620Z,995.88
2019-03-06T01:11:23.561Z,995.88
2019-03-06T01:12:23.547Z,995.85
2019-03-06T01:13:23.521Z,995.87
2019-03-06T01:14:23.514Z,995.88
2019-03-06T01:15:23.490Z,995.83
2019-03-06T01:16:23.466Z,995.86
2019-03-06T01:17:23.427Z,995.81
2019-03-06T01:18:23.417Z,995.79
2019-03-06T01:19:23.409Z,995.75
2019-03-06T01:20:23.368Z,995.76
2019-03-06T01:21:23.376Z,995.75
2019-03-06T01:22:23.349Z,995.73
2019-03-06T01:23:23.329Z,995.77
2019-03-06T01:24:23.365Z,995.78
2019-03-06T01:25:23.287Z,995.74
2019-03-06T01:26:23.274Z,995.79
2019-03-06T01:27:23.229Z,995.76
2019-03-06T01:28:23.226Z,995.76
2019-03-06T01:29:23.215Z,995.76
2019-03-06T01:30:23.226Z,995.74
2019-03-06T01:31:23.170Z,995.73
2019-03-06T01:32:23.152Z,995.71
2019-03-06T01:33:23.163Z,995.71
2019-03-06T01:34:23.115Z,995.71
2019-03-06T01:35:23.086Z,995.67
2019-03-06T01:36:23.072Z,995.68
2019-03-06T01:37:23.050Z,995.67
2019-03-06T01:38:23.014Z,995.66
2019-03-06T01:39:23.048Z,995.66
2019-03-06T01:40:22.997Z,995.66
2019-03-06T01:41:22.975Z,995.65
2019-03-06T01:42:22.954Z,995.68
2019-03-06T01:43:22.913Z,995.62
2019-03-06T01:44:22.951Z,995.61
2019-03-06T01:45:22.887Z,995.61
2019-03-06T01:46:22.874Z,995.58
2019-03-06T01:47:22.842Z,995.58
2019-03-06T01:48:22.832Z,995.58
2019-03-06T01:49:22.876Z,995.57
2019-03-06T01:50:22.776Z,995.56
2019-03-06T01:51:22.778Z,995.54
2019-03-06T01:52:22.745Z,995.54
2019-03-06T01:53:22.740Z,995.57
2019-03-06T01:54:22.701Z,995.47
2019-03-06T01:55:22.708Z,995.49
2019-03-06T01:56:22.672Z,995.47
2019-03-06T01:57:22.651Z,995.48
2019-03-06T01:58:22.635Z,995.47
2019-03-06T01:59:22.615Z,995.46
2019-03-06T02:00:22.616Z,995.46
2019-03-06T02:01:22.579Z,995.42
2019-03-06T02:02:22.577Z,995.41
2019-03-06T02:03:22.540Z,995.43
2019-03-06T02:04:22.502Z,995.38
2019-03-06T02:05:22.523Z,995.39
2019-03-06T02:06:22.467Z,995.40
2019-03-06T02:07:22.494Z,995.43
2019-03-06T02:08:22.449Z,995.44
2019-03-06T02:09:22.407Z,995.42
2019-03-06T02:10:22.433Z,995.44
2019-03-06T02:11:22.443Z,995.50
2019-03-06T02:12:22.374Z,995.49
2019-03-06T02:13:22.347Z,995.49
2019-03-06T02:14:22.317Z,995.46
2019-03-06T02:15:22.307Z,995.44
2019-03-06T02:16:22.287Z,995.39
2019-03-06T02:17:22.290Z,995.35
2019-03-06T02:18:22.253Z,995.29
2019-03-06T02:19:22.233Z,995.26
2019-03-06T02:20:22.218Z,995.23
2019-03-06T02:21:22.176Z,995.15
2019-03-06T02:22:22.209Z,995.18
2019-03-06T02:23:22.161Z,995.12
2019-03-06T02:24:22.118Z,995.11
2019-03-06T02:25:22.123Z,995.11
2019-03-06T02:26:22.094Z,995.11
2019-03-06T02:27:22.109Z,995.11
2019-03-06T02:28:22.048Z,995.10
2019-03-06T02:29:22.037Z,995.10
2019-03-06T02:30:22.015Z,995.08
2019-03-06T02:31:21.995Z,995.09
2019-03-06T02:32:21.991Z,995.04
2019-03-06T02:33:21.964Z,995.03
2019-03-06T02:34:21.952Z,995.00
2019-03-06T02:35:21.921Z,995.02
2019-03-06T02:36:21.893Z,994.99
2019-03-06T02:37:21.924Z,994.99
2019-03-06T02:38:21.864Z,994.97
2019-03-06T02:39:21.838Z,994.96
2019-03-06T02:40:21.835Z,994.92
2019-03-06T02:41:21.898Z,994.90
2019-03-06T02:42:21.778Z,994.88
2019-03-06T02:43:21.770Z,994.86
2019-03-06T02:44:21.744Z,994.87
2019-03-06T02:45:21.727Z,994.82
2019-03-06T02:46:21.706Z,994.79
2019-03-06T02:47:21.749Z,994.77
2019-03-06T02:48:21.670Z,994.72
2019-03-06T02:49:21.651Z,994.71
2019-03-06T02:50:21.629Z,994.65
2019-03-06T02:51:21.605Z,994.64
2019-03-06T02:52:21.585Z,994.64
2019-03-06T02:53:21.605Z,994.64
2019-03-06T02:54:21.546Z,994.61
2019-03-06T02:55:21.509Z,994.64
2019-03-06T02:56:21.491Z,994.61
2019-03-06T02:57:21.493Z,994.61
2019-03-06T02:58:21.479Z,994.56
2019-03-06T02:59:21.432Z,994.53
2019-03-06T03:00:21.412Z,994.54
2019-03-06T03:01:21.416Z,994.48
2019-03-06T03:02:21.385Z,994.47
2019-03-06T03:03:21.528Z,994.48
2019-03-06T03:04:21.339Z,994.46
2019-03-06T03:05:21.331Z,994.49
2019-03-06T03:06:21.326Z,994.48
2019-03-06T03:07:21.308Z,994.51
2019-03-06T03:08:21.286Z,994.45
2019-03-06T03:09:21.258Z,994.45
2019-03-06T03:10:21.243Z,994.46
2019-03-06T03:11:21.208Z,994.50
2019-03-06T03:12:21.208Z,994.48
2019-03-06T03:13:21.209Z,994.44
2019-03-06T03:14:21.172Z,994.47
2019-03-06T03:15:21.172Z,994.40
2019-03-06T03:16:21.126Z,994.36
2019-03-06T03:17:21.121Z,994.33
2019-03-06T03:18:21.084Z,994.33
2019-03-06T03:19:21.069Z,994.34
2019-03-06T03:20:21.045Z,994.36
2019-03-06T03:21:21.027Z,994.44
2019-03-06T03:22:21.026Z,994.38
2019-03-06T03:23:20.984Z,994.41
2019-03-06T03:24:20.957Z,994.42
2019-03-06T03:25:20.955Z,994.38
2019-03-06T03:26:20.937Z,994.36
2019-03-06T03:27:21.051Z,994.39
2019-03-06T03:28:20.898Z,994.35
2019-03-06T03:29:20.872Z,994.30
2019-03-06T03:30:20.864Z,994.31
2019-03-06T03:31:20.837Z,994.35
2019-03-06T03:32:20.821Z,994.36
2019-03-06T03:33:20.825Z,994.35
2019-03-06T03:34:20.772Z,994.36
2019-03-06T03:35:20.753Z,994.32
2019-03-06T03:36:20.738Z,994.34
2019-03-06T03:37:20.722Z,994.32
2019-03-06T03:38:20.707Z,994.34
2019-03-06T03:39:20.682Z,994.35
2019-03-06T03:40:20.662Z,994.35
2019-03-06T03:41:20.661Z,994.31
2019-03-06T03:42:20.638Z,994.30
2019-03-06T03:43:20.632Z,994.29
2019-03-06T03:44:20.578Z,994.26
2019-03-06T03:45:20.561Z,994.22
2019-03-06T03:46:20.548Z,994.21
2019-03-06T03:47:20.528Z,994.16
2019-03-06T03:48:20.540Z,994.13
2019-03-06T03:49:20.488Z,994.10
2019-03-06T03:50:20.616Z,994.06
2019-03-06T03:51:20.437Z,994.08
2019-03-06T03:52:20.419Z,994.10
2019-03-06T03:53:20.426Z,994.04
2019-03-06T03:54:20.389Z,994.07
2019-03-06T03:55:20.364Z,994.02
2019-03-06T03:56:20.405Z,994.06
2019-03-06T03:57:20.381Z,993.98
2019-03-06T03:58:20.323Z,993.99
2019-03-06T03:59:20.328Z,993.97
2019-03-06T04:00:20.295Z,993.94
2019-03-06T04:01:20.270Z,993.93
2019-03-06T04:02:20.255Z,993.94
2019-03-06T04:03:20.224Z,993.95
2019-03-06T04:04:20.219Z,993.96
2019-03-06T04:05:20.238Z,993.96
2019-03-06T04:06:20.179Z,993.93
2019-03-06T04:07:20.239Z,993.92
2019-03-06T04:08:20.117Z,993.93
2019-03-06T04:09:20.118Z,993.89
2019-03-06T04:10:20.094Z,993.87
2019-03-06T04:11:20.074Z,993.88
2019-03-06T04:12:20.073Z,993.85
2019-03-06T04:13:20.074Z,993.87
2019-03-06T04:14:20.038Z,993.83
2019-03-06T04:15:20.022Z,993.81
2019-03-06T04:16:20.008Z,993.80
2019-03-06T04:17:19.958Z,993.82
2019-03-06T04:18:19.942Z,993.85
2019-03-06T04:19:19.938Z,993.81
2019-03-06T04:20:19.889Z,993.83
2019-03-06T04:21:19.869Z,993.78
2019-03-06T04:22:19.891Z,993.81
2019-03-06T04:23:19.889Z,993.76
2019-03-06T04:24:19.840Z,993.79
2019-03-06T04:25:19.819Z,993.78
2019-03-06T04:26:19.774Z,993.77
2019-03-06T04:27:19.779Z,993.77
2019-03-06T04:28:19.742Z,993.73
2019-03-06T04:29:19.740Z,993.71
2019-03-06T04:30:19.697Z,993.69
2019-03-06T04:31:19.698Z,993.66
2019-03-06T04:32:19.683Z,993.66
2019-03-06T04:33:19.678Z,993.74
2019-03-06T04:34:19.633Z,993.78
2019-03-06T04:35:19.615Z,993.77
2019-03-06T04:36:19.640Z,993.79
2019-03-06T04:37:19.587Z,993.76
2019-03-06T04:38:19.565Z,993.72
2019-03-06T04:39:19.585Z,993.68
2019-03-06T04:40:19.669Z,993.71
2019-03-06T04:41:19.489Z,993.68
2019-03-06T04:42:19.487Z,993.68
2019-03-06T04:43:19.475Z,993.63
2019-03-06T04:44:19.440Z,993.57
2019-03-06T04:45:19.413Z,993.52
2019-03-06T04:46:19.444Z,993.54
2019-03-06T04:47:19.398Z,993.63
2019-03-06T04:48:19.377Z,993.59
2019-03-06T04:49:19.354Z,993.57
2019-03-06T04:50:19.323Z,993.54
2019-03-06T04:51:19.328Z,993.58
2019-03-06T04:52:19.294Z,993.60
2019-03-06T04:53:19.272Z,993.62
2019-03-06T04:54:19.256Z,993.60
2019-03-06T04:55:19.241Z,993.63
2019-03-06T04:56:19.203Z,993.62
2019-03-06T04:57:19.241Z,993.69
2019-03-06T04:58:19.176Z,993.64
2019-03-06T04:59:19.169Z,993.60
2019-03-06T05:00:19.135Z,993.58
2019-03-06T05:01:19.107Z,993.62
2019-03-06T05:02:19.125Z,993.68
2019-03-06T05:03:19.080Z,993.64
2019-03-06T05:04:19.057Z,993.67
2019-03-06T05:05:19.031Z,993.62
2019-03-06T05:06:19.021Z,993.60
2019-03-06T05:07:19.006Z,993.55
2019-03-06T05:08:19.015Z,993.56
2019-03-06T05:09:19.005Z,993.53
2019-03-06T05:10:18.943Z,993.53
2019-03-06T05:11:18.926Z,993.53
2019-03-06T05:12:18.905Z,993.49
2019-03-06T05:13:18.921Z,993.48
2019-03-06T05:14:18.875Z,993.47
2019-03-06T05:15:18.852Z,993.41
2019-03-06T05:16:18.836Z,993.38
2019-03-06T05:17:18.815Z,993.37
2019-03-06T05:18:18.828Z,993.38
2019-03-06T05:19:19.064Z,993.38
2019-03-06T05:20:18.763Z,993.37
2019-03-06T05:21:18.775Z,993.37
2019-03-06T05:22:18.730Z,993.37
2019-03-06T05:23:18.715Z,993.35
2019-03-06T05:24:18.667Z,993.35
2019-03-06T05:25:18.646Z,993.37
2019-03-06T05:26:18.655Z,993.36
2019-03-06T05:27:18.606Z,993.35
2019-03-06T05:28:18.655Z,993.37
2019-03-06T05:29:18.585Z,993.35
2019-03-06T05:30:18.572Z,993.33
2019-03-06T05:31:18.531Z,993.30
2019-03-06T05:32:18.533Z,993.23
2019-03-06T05:33:18.509Z,993.23
2019-03-06T05:34:18.484Z,993.18
2019-03-06T05:35:18.478Z,993.18
2019-03-06T05:36:18.436Z,993.14
2019-03-06T05:37:18.440Z,993.10
2019-03-06T05:38:18.407Z,993.08
2019-03-06T05:39:18.452Z,992.99
2019-03-06T05:40:18.381Z,993.00
2019-03-06T05:41:18.360Z,992.96
2019-03-06T05:42:18.356Z,992.96
2019-03-06T05:43:18.305Z,992.96
2019-03-06T05:44:18.305Z,992.96
2019-03-06T05:45:18.293Z,992.92
2019-03-06T05:46:18.264Z,992.90
2019-03-06T05:47:18.245Z,992.88
2019-03-06T05:48:18.236Z,992.91
2019-03-06T05:49:18.216Z,992.92
2019-03-06T05:50:20.244Z,992.98
2019-03-06T05:51:18.148Z,992.88
2019-03-06T05:52:18.133Z,992.91
2019-03-06T05:53:18.137Z,992.87
2019-03-06T05:54:18.112Z,992.89
2019-03-06T05:55:18.109Z,992.89
2019-03-06T05:56:18.134Z,992.90
2019-03-06T05:57:18.061Z,992.84
2019-03-06T05:58:18.029Z,992.81
2019-03-06T05:59:18.018Z,992.84
2019-03-06T06:00:18.034Z,992.86
2019-03-06T06:01:17.981Z,992.89
2019-03-06T06:02:17.967Z,992.91
2019-03-06T06:03:17.933Z,992.93
2019-03-06T06:04:17.923Z,992.90
2019-03-06T06:05:17.908Z,992.94
2019-03-06T06:06:17.888Z,992.88
2019-03-06T06:07:17.863Z,992.86
2019-03-06T06:08:17.841Z,992.84
2019-03-06T06:09:17.839Z,992.81
2019-03-06T06:10:17.809Z,992.80
2019-03-06T06:11:17.823Z,992.76
2019-03-06T06:12:17.768Z,992.75
2019-03-06T06:13:17.739Z,992.72
2019-03-06T06:14:17.726Z,992.72
2019-03-06T06:15:17.700Z,992.67
2019-03-06T06:16:17.695Z,992.68
2019-03-06T06:17:17.660Z,992.66
2019-03-06T06:18:17.644Z,992.67
2019-03-06T06:19:17.633Z,992.64
2019-03-06T06:20:17.624Z,992.64
2019-03-06T06:21:17.592Z,992.61
2019-03-06T06:22:17.573Z,992.64
2019-03-06T06:23:17.553Z,992.61
2019-03-06T06:24:17.544Z,992.56
2019-03-06T06:25:17.506Z,992.65
2019-03-06T06:26:17.499Z,992.63
2019-03-06T06:27:17.544Z,992.65
2019-03-06T06:28:17.462Z,992.68
2019-03-06T06:29:17.630Z,992.68
2019-03-06T06:30:17.423Z,992.62
2019-03-06T06:31:17.409Z,992.59
2019-03-06T06:32:17.386Z,992.57
2019-03-06T06:33:17.423Z,992.53
2019-03-06T06:34:17.359Z,992.51
2019-03-06T06:35:17.347Z,992.51
2019-03-06T06:36:17.298Z,992.44
2019-03-06T06:37:17.288Z,992.46
2019-03-06T06:38:17.271Z,992.46
2019-03-06T06:39:17.272Z,992.48
2019-03-06T06:40:17.254Z,992.45
2019-03-06T06:41:17.227Z,992.43
2019-03-06T06:42:17.224Z,992.44
2019-03-06T06:43:17.246Z,992.46
2019-03-06T06:44:17.146Z,992.39
2019-03-06T06:45:17.136Z,992.44
2019-03-06T06:46:17.137Z,992.44
2019-03-06T06:47:17.103Z,992.38
2019-03-06T06:48:17.078Z,992.33
2019-03-06T06:49:17.111Z,992.34
2019-03-06T06:50:17.040Z,992.34
2019-03-06T06:51:17.038Z,992.30
2019-03-06T06:52:17.026Z,992.31
2019-03-06T06:53:16.990Z,992.29
2019-03-06T06:54:17.006Z,992.28
2019-03-06T06:55:16.956Z,992.28
2019-03-06T06:56:16.946Z,992.29
2019-03-06T06:57:16.912Z,992.28
2019-03-06T06:58:16.888Z,992.28
2019-03-06T06:59:16.894Z,992.26
2019-03-06T07:00:16.874Z,992.31
2019-03-06T07:01:16.843Z,992.28
2019-03-06T07:02:16.815Z,992.37
2019-03-06T07:03:16.799Z,992.33
2019-03-06T07:04:16.806Z,992.28
2019-03-06T07:05:16.764Z,992.30
2019-03-06T07:06:16.749Z,992.31
2019-03-06T07:07:16.713Z,992.26
2019-03-06T07:08:16.709Z,992.15
2019-03-06T07:09:16.691Z,992.14
2019-03-06T07:10:16.815Z,992.15
2019-03-06T07:11:16.648Z,992.13
2019-03-06T07:12:16.644Z,992.13
2019-03-06T07:13:16.611Z,992.08
2019-03-06T07:14:16.595Z,992.01
2019-03-06T07:15:16.563Z,992.05
2019-03-06T07:16:16.686Z,992.03
2019-03-06T07:17:16.526Z,992.01
2019-03-06T07:18:16.532Z,992.06
2019-03-06T07:19:16.496Z,992.08
2019-03-06T07:20:16.492Z,992.04
2019-03-06T07:21:16.450Z,992.03
2019-03-06T07:22:16.481Z,991.94
2019-03-06T07:23:16.439Z,991.93
2019-03-06T07:24:16.399Z,991.91
2019-03-06T07:25:16.392Z,991.94
2019-03-06T07:26:16.364Z,991.97
2019-03-06T07:27:16.387Z,992.00
2019-03-06T07:28:16.347Z,991.98
2019-03-06T07:29:16.534Z,991.98
2019-03-06T07:30:16.297Z,991.96
2019-03-06T07:31:16.268Z,991.91
2019-03-06T07:32:16.298Z,991.91
2019-03-06T07:33:16.243Z,991.91
2019-03-06T07:34:16.240Z,991.91
2019-03-06T07:35:16.221Z,991.90
2019-03-06T07:36:16.179Z,991.93
2019-03-06T07:37:16.187Z,991.96
2019-03-06T07:38:16.191Z,991.93
2019-03-06T07:39:16.158Z,991.82
2019-03-06T07:40:16.102Z,991.80
2019-03-06T07:41:16.101Z,991.80
2019-03-06T07:42:16.066Z,991.82
2019-03-06T07:43:16.280Z,991.83
2019-03-06T07:44:16.048Z,991.78
2019-03-06T07:45:16.008Z,991.85
2019-03-06T07:46:16.054Z,991.87
2019-03-06T07:47:15.998Z,991.84
2019-03-06T07:48:15.985Z,991.86
2019-03-06T07:49:15.942Z,991.87
2019-03-06T07:50:15.928Z,991.81
2019-03-06T07:51:15.916Z,991.81
2019-03-06T07:52:15.899Z,991.83
2019-03-06T07:53:15.904Z,991.81
2019-03-06T07:54:15.851Z,991.78
2019-03-06T07:55:15.828Z,991.75
2019-03-06T07:56:15.823Z,991.73
2019-03-06T07:57:15.856Z,991.68
2019-03-06T07:58:15.787Z,991.70
2019-03-06T07:59:15.763Z,991.66
2019-03-06T08:00:15.737Z,991.66
2019-03-06T08:01:18.743Z,991.63
2019-03-06T08:02:15.731Z,991.65
2019-03-06T08:03:15.702Z,991.65
2019-03-06T08:04:15.690Z,991.58
2019-03-06T08:05:15.662Z,991.57
2019-03-06T08:06:15.650Z,991.57
2019-03-06T08:07:15.634Z,991.52
2019-03-06T08:08:15.603Z,991.55
2019-03-06T08:09:15.602Z,991.51
2019-03-06T08:10:15.714Z,991.54
2019-03-06T08:11:15.562Z,991.53
2019-03-06T08:12:15.525Z,991.50
2019-03-06T08:13:15.552Z,991.55
2019-03-06T08:14:22.020Z,991.52
2019-03-06T08:15:15.488Z,991.51
2019-03-06T08:16:15.487Z,991.49
2019-03-06T08:17:15.436Z,991.53
2019-03-06T08:18:15.440Z,991.50
2019-03-06T08:19:15.419Z,991.52
2019-03-06T08:20:15.410Z,991.48
2019-03-06T08:21:15.387Z,991.40
2019-03-06T08:22:15.356Z,991.42
2019-03-06T08:23:15.412Z,991.41
2019-03-06T08:24:15.321Z,991.41
2019-03-06T08:25:15.290Z,991.42
2019-03-06T08:26:15.293Z,991.37
2019-03-06T08:27:15.273Z,991.35
2019-03-06T08:28:15.259Z,991.31
2019-03-06T08:29:15.242Z,991.30
2019-03-06T08:30:15.223Z,991.33
2019-03-06T08:31:15.204Z,991.27
2019-03-06T08:32:15.171Z,991.30
2019-03-06T08:33:18.234Z,991.28
2019-03-06T08:34:15.155Z,991.22
2019-03-06T08:35:15.128Z,991.23
2019-03-06T08:36:15.104Z,991.25
2019-03-06T08:37:15.105Z,991.26
2019-03-06T08:38:15.072Z,991.30
2019-03-06T08:39:15.102Z,991.34
2019-03-06T08:40:15.076Z,991.29
2019-03-06T08:41:15.022Z,991.31
2019-03-06T08:42:15.003Z,991.28
2019-03-06T08:43:14.985Z,991.27
2019-03-06T08:44:14.977Z,991.34
2019-03-06T08:45:14.964Z,991.33
2019-03-06T08:46:14.943Z,991.30
2019-03-06T08:47:14.919Z,991.34
2019-03-06T08:48:14.901Z,991.36
2019-03-06T08:49:14.914Z,991.34
2019-03-06T08:50:14.877Z,991.40
2019-03-06T08:51:14.834Z,991.32
2019-03-06T08:52:14.832Z,991.34
2019-03-06T08:53:14.827Z,991.32
2019-03-06T08:54:14.795Z,991.33
2019-03-06T08:55:14.860Z,991.30
2019-03-06T08:56:15.029Z,991.29
2019-03-06T08:57:14.906Z,991.21
2019-03-06T08:58:14.739Z,991.24
2019-03-06T08:59:14.714Z,991.19
2019-03-06T09:00:14.689Z,991.23
2019-03-06T09:01:14.674Z,991.19
2019-03-06T09:02:15.838Z,991.20
2019-03-06T09:03:14.680Z,991.17
2019-03-06T09:04:14.613Z,991.18
2019-03-06T09:05:14.610Z,991.12
2019-03-06T09:06:14.598Z,991.12
2019-03-06T09:07:14.571Z,991.11
2019-03-06T09:08:14.597Z,991.01
2019-03-06T09:09:14.535Z,991.07
2019-03-06T09:10:14.525Z,990.99
2019-03-06T09:11:14.512Z,990.94
2019-03-06T09:12:14.484Z,990.90
2019-03-06T09:13:14.500Z,990.88
2019-03-06T09:14:14.444Z,990.83
2019-03-06T09:15:14.438Z,990.85
2019-03-06T09:16:14.435Z,990.73
2019-03-06T09:17:14.415Z,990.71
2019-03-06T09:18:14.445Z,990.68
2019-03-06T09:19:14.383Z,990.62
2019-03-06T09:20:14.373Z,990.60
2019-03-06T09:21:14.352Z,990.59
2019-03-06T09:22:14.319Z,990.59
2019-03-06T09:23:22.611Z,990.59
2019-03-06T09:24:14.294Z,990.58
2019-03-06T09:25:14.277Z,990.59
2019-03-06T09:26:14.253Z,990.59
2019-03-06T09:27:14.240Z,990.55
2019-03-06T09:28:14.212Z,990.54
2019-03-06T09:29:14.223Z,990.46
2019-03-06T09:30:16.249Z,990.51
2019-03-06T09:31:14.168Z,990.47
2019-03-06T09:32:14.155Z,990.48
2019-03-06T09:33:14.236Z,990.34
2019-03-06T09:34:14.260Z,990.38
2019-03-06T09:35:14.118Z,990.36
2019-03-06T09:36:14.080Z,990.35
2019-03-06T09:37:14.061Z,990.32
2019-03-06T09:38:14.067Z,990.29
2019-03-06T09:39:14.033Z,990.29
2019-03-06T09:40:14.064Z,990.30
2019-03-06T09:41:14.055Z,990.31
2019-03-06T09:42:14.140Z,990.28
2019-03-06T09:43:13.984Z,990.30
2019-03-06T09:44:13.964Z,990.26
2019-03-06T09:45:13.946Z,990.26
2019-03-06T09:46:13.940Z,990.25
2019-03-06T09:47:13.950Z,990.29
2019-03-06T09:48:13.910Z,990.25
2019-03-06T09:49:13.870Z,990.23
2019-03-06T09:50:13.889Z,990.11
2019-03-06T09:51:13.889Z,990.18
2019-03-06T09:52:13.838Z,990.15
2019-03-06T09:53:13.818Z,990.11
2019-03-06T09:54:13.809Z,990.07
2019-03-06T09:55:13.782Z,990.09
2019-03-06T09:56:13.786Z,990.09
2019-03-06T09:57:13.780Z,990.05
2019-03-06T09:58:13.745Z,990.05
2019-03-06T09:59:13.718Z,989.97
2019-03-06T10:00:13.704Z,990.00
2019-03-06T10:01:13.837Z,990.04
2019-03-06T10:02:13.671Z,989.99
2019-03-06T10:03:13.652Z,989.98
2019-03-06T10:04:13.641Z,989.91
2019-03-06T10:05:13.630Z,989.91
2019-03-06T10:06:13.615Z,989.88
2019-03-06T10:07:13.609Z,989.86
2019-03-06T10:08:13.583Z,989.83
2019-03-06T10:09:13.561Z,989.81
2019-03-06T10:10:13.545Z,989.81
2019-03-06T10:11:17.110Z,989.84
2019-03-06T10:12:13.538Z,989.76
2019-03-06T10:13:13.534Z,989.72
2019-03-06T10:14:13.471Z,989.70
2019-03-06T10:15:13.459Z,989.82
2019-03-06T10:16:13.457Z,989.77
2019-03-06T10:17:13.417Z,989.76
2019-03-06T10:18:13.435Z,989.71
2019-03-06T10:19:13.404Z,989.71
2019-03-06T10:20:13.384Z,989.71
2019-03-06T10:21:13.368Z,989.71
2019-03-06T10:22:13.357Z,989.69
2019-03-06T10:23:13.367Z,989.67
2019-03-06T10:24:13.316Z,989.65
2019-03-06T10:25:13.309Z,989.64
2019-03-06T10:26:13.285Z,989.60
2019-03-06T10:27:13.274Z,989.63
2019-03-06T10:28:13.283Z,989.63
2019-03-06T10:29:13.250Z,989.62
2019-03-06T10:30:13.305Z,989.58
2019-03-06T10:31:13.217Z,989.61
2019-03-06T10:32:13.202Z,989.58
2019-03-06T10:33:13.209Z,989.57
2019-03-06T10:34:13.170Z,989.54
2019-03-06T10:35:13.146Z,989.55
2019-03-06T10:36:13.109Z,989.56
2019-03-06T10:37:13.101Z,989.53
2019-03-06T10:38:16.633Z,989.49
2019-03-06T10:39:13.078Z,989.49
2019-03-06T10:40:13.071Z,989.46
2019-03-06T10:41:13.057Z,989.43
2019-03-06T10:42:13.032Z,989.43
2019-03-06T10:43:13.002Z,989.42
2019-03-06T10:44:12.998Z,989.43
2019-03-06T10:45:13.004Z,989.34
2019-03-06T10:46:12.993Z,989.33
2019-03-06T10:47:12.950Z,989.29
2019-03-06T10:48:12.948Z,989.27
2019-03-06T10:49:12.922Z,989.23
2019-03-06T10:50:12.922Z,989.26
2019-03-06T10:51:12.930Z,989.25
2019-03-06T10:52:12.874Z,989.20
2019-03-06T10:53:12.868Z,989.17
2019-03-06T10:54:12.857Z,989.13
2019-03-06T10:55:12.851Z,989.13
2019-03-06T10:56:12.867Z,989.13
2019-03-06T10:57:12.795Z,989.12
2019-03-06T10:58:12.795Z,989.17
2019-03-06T10:59:12.780Z,989.14
2019-03-06T11:00:12.765Z,989.19
2019-03-06T11:01:12.786Z,989.14
2019-03-06T11:02:12.748Z,989.11
2019-03-06T11:03:12.886Z,989.10
2019-03-06T11:04:12.708Z,989.06
2019-03-06T11:05:12.782Z,989.09
2019-03-06T11:06:12.683Z,989.08
2019-03-06T11:07:12.644Z,989.05
2019-03-06T11:08:12.633Z,989.04
2019-03-06T11:09:12.634Z,989.00
2019-03-06T11:10:12.626Z,988.99
2019-03-06T11:11:12.637Z,988.99
2019-03-06T11:12:12.886Z,988.92
2019-03-06T11:13:12.582Z,988.90
2019-03-06T11:14:12.556Z,988.86
2019-03-06T11:15:12.564Z,988.88
2019-03-06T11:16:12.552Z,988.81
2019-03-06T11:17:12.639Z,988.78
2019-03-06T11:18:12.511Z,988.75
2019-03-06T11:19:12.505Z,988.79
2019-03-06T11:20:12.518Z,988.76
2019-03-06T11:21:12.521Z,988.69
2019-03-06T11:22:12.444Z,988.69
2019-03-06T11:23:12.457Z,988.67
2019-03-06T11:24:12.439Z,988.69
2019-03-06T11:25:12.423Z,988.64
2019-03-06T11:26:12.446Z,988.59
2019-03-06T11:27:12.406Z,988.56
2019-03-06T11:28:12.378Z,988.54
2019-03-06T11:29:12.357Z,988.54
2019-03-06T11:30:12.345Z,988.54
2019-03-06T11:31:14.915Z,988.53
2019-03-06T11:32:12.553Z,988.48
2019-03-06T11:33:12.313Z,988.49
2019-03-06T11:34:12.277Z,988.47
2019-03-06T11:35:12.276Z,988.52
2019-03-06T11:36:12.267Z,988.46
2019-03-06T11:37:12.262Z,988.45
2019-03-06T11:38:12.377Z,988.36
2019-03-06T11:39:12.233Z,988.43
2019-03-06T11:40:12.219Z,988.40
2019-03-06T11:41:12.204Z,988.39
2019-03-06T11:42:12.189Z,988.35
2019-03-06T11:43:12.188Z,988.33
2019-03-06T11:44:12.184Z,988.33
2019-03-06T11:45:12.135Z,988.27
2019-03-06T11:46:12.126Z,988.23
2019-03-06T11:47:12.121Z,988.23
2019-03-06T11:48:12.115Z,988.20
2019-03-06T11:49:12.128Z,988.13
2019-03-06T11:50:12.225Z,988.17
2019-03-06T11:51:12.065Z,988.19
2019-03-06T11:52:12.054Z,988.22
2019-03-06T11:53:12.035Z,988.18
2019-03-06T11:54:12.037Z,988.11
2019-03-06T11:55:12.027Z,988.10
2019-03-06T11:56:12.056Z,988.04
2019-03-06T11:57:11.997Z,988.04
2019-03-06T11:58:11.987Z,987.99
2019-03-06T11:59:11.955Z,987.92
2019-03-06T12:00:11.959Z,987.94
2019-03-06T12:01:12.023Z,987.90
2019-03-06T12:02:11.925Z,987.89
2019-03-06T12:03:11.913Z,987.92
2019-03-06T12:04:11.907Z,987.92
2019-03-06T12:05:11.889Z,987.91
2019-03-06T12:06:11.906Z,987.87
2019-03-06T12:07:11.850Z,987.87
2019-03-06T12:08:11.849Z,987.86
2019-03-06T12:09:11.843Z,987.83
2019-03-06T12:10:12.054Z,987.82
2019-03-06T12:11:11.846Z,987.80
2019-03-06T12:12:11.794Z,987.85
2019-03-06T12:13:11.774Z,987.82
2019-03-06T12:14:11.907Z,987.78
2019-03-06T12:15:11.774Z,987.81
2019-03-06T12:16:11.817Z,987.81
2019-03-06T12:17:11.723Z,987.77
2019-03-06T12:18:11.811Z,987.75
2019-03-06T12:19:11.706Z,987.70
2019-03-06T12:20:11.709Z,987.69
2019-03-06T12:21:11.922Z,987.66
2019-03-06T12:22:11.731Z,987.64
2019-03-06T12:23:11.783Z,987.63
2019-03-06T12:24:13.093Z,987.58
2019-03-06T12:25:11.636Z,987.58
2019-03-06T12:26:11.635Z,987.57
2019-03-06T12:27:11.620Z,987.53
2019-03-06T12:28:11.601Z,987.47